Lake Worth, FL (33460)

6:09 AM EDT on August 27, 2016 (GMT -0400)
Lake Clarke Shores - Caribbean Rd. East | | Change Station

Elev 16 ft 26.63 °N, 80.07 °W | Updated 13 seconds ago

Mostly Cloudy
Mostly Cloudy
81.7 °F
Feels Like 91 °F
N
8.1
Wind Variable Wind from East
Gusts 8.1 mph

Today
High -- | Low -- °F
--% Chance of Precip.
Yesterday
High -- | Low -- °F
Precip. -- in
Pressure 29.91 in
Visibility 10.0 miles
Clouds Few 2500 ft
Mostly Cloudy 25000 ft
Heat Index 91 °F
Dew Point 78 °F
Humidity 90%
Rainfall 0.00 in
Snow Depth Not available.
6:57 AM 7:44 PM
Waning Crescent, 26% visible
METAR KPBI 270953Z 06007KT 10SM FEW025 BKN250 29/24 A2990 RMK AO2 SLP126 FRQ LTGICCC DSNT E-SE CB DSNT E-SE T02890244 $
Pressure 29.91 in
Visibility 10.0 miles
Clouds Few 2500 ft
Mostly Cloudy 25000 ft
Heat Index 91 °F
Dew Point 78 °F
Humidity 90%
Rainfall 0.00 in
Snow Depth Not available.
6:57 AM 7:44 PM
Waning Crescent, 26% visible
METAR KPBI 270953Z 06007KT 10SM FEW025 BKN250 29/24 A2990 RMK AO2 SLP126 FRQ LTGICCC DSNT E-SE CB DSNT E-SE T02890244 $

10-Day Weather Forecast

Almanac

Astronomy

Aug. 27, 2016 Rise Set
Actual Time
Civil Twilight
Nautical Twilight
Astronomical Twilight
Moon
Length of Visible Light
Length of Day
Tomorrow will be .
, % of the Moon is Illuminated

Today's Extremes

State Highs State Lows

Community

WunderPhotos

Upload Photos

1,935,313 photos uploaded!

WunderBlog® & News

Nearby

Air Quality

  Air Quality AQ Index Pollutant
Not available.

Snow Depth

Station Depth Elevation

Earthquake Activity

City Distance Mag. Time & Date
Minimum magnitude displayed is 2.5.

Coastal Water Temperatures

Place Temperature

Stations

Nearby Weather Stations

Station Location Temp. Windchill Dew Point Humidity Wind Precip. Elev Updated Type
                   

Watches & Warnings

There are currently no watches in effect.